TimeEDT,TemperatureF,Dew PointF,Humidity,Sea Level PressureIn,VisibilityMPH,Wind Direction,Wind SpeedMPH,Gust SpeedMPH,PrecipitationIn,Events,Conditions,WindDirDegrees,DateUTC
12:15 AM,42.8,28.4,57,30.05,10.0,NW,4.6,-,N/A,,Clear,320,2013-05-14 04:15:00
12:35 AM,42.8,30.2,61,30.05,10.0,NW,4.6,-,N/A,,Clear,310,2013-05-14 04:35:00
12:55 AM,42.8,30.2,61,30.06,10.0,NW,4.6,-,N/A,,Clear,310,2013-05-14 04:55:00
1:15 AM,42.8,30.2,61,30.06,10.0,NW,5.8,-,N/A,,Clear,320,2013-05-14 05:15:00
1:35 AM,42.8,30.2,61,30.06,10.0,NW,4.6,-,N/A,,Clear,320,2013-05-14 05:35:00
1:55 AM,41.0,30.2,65,30.06,10.0,NW,6.9,-,N/A,,Clear,320,2013-05-14 05:55:00
2:15 AM,41.0,30.2,65,30.06,10.0,NW,6.9,-,N/A,,Clear,320,2013-05-14 06:15:00
2:35 AM,41.0,30.2,65,30.05,10.0,NW,6.9,-,N/A,,Clear,310,2013-05-14 06:35:00
2:55 AM,41.0,30.2,65,30.05,10.0,NW,5.8,-,N/A,,Clear,320,2013-05-14 06:55:00
3:15 AM,39.2,30.2,70,30.05,10.0,NNW,6.9,-,N/A,,Clear,330,2013-05-14 07:15:00
3:35 AM,39.2,30.2,70,30.05,10.0,NW,8.1,-,N/A,,Clear,320,2013-05-14 07:35:00
3:55 AM,39.2,30.2,70,30.05,10.0,NNW,8.1,-,N/A,,Clear,330,2013-05-14 07:55:00
4:15 AM,41.0,30.2,65,30.05,10.0,NNW,8.1,-,N/A,,Clear,330,2013-05-14 08:15:00
4:35 AM,41.0,30.2,65,30.05,10.0,NNW,9.2,-,N/A,,Clear,330,2013-05-14 08:35:00
4:55 AM,41.0,30.2,65,30.06,10.0,NNW,9.2,16.1,N/A,,Clear,340,2013-05-14 08:55:00
5:15 AM,41.0,30.2,65,30.06,10.0,NNW,10.4,17.3,N/A,,Clear,330,2013-05-14 09:15:00
5:35 AM,41.0,30.2,65,30.07,10.0,NNW,10.4,16.1,N/A,,Clear,330,2013-05-14 09:35:00
5:55 AM,42.8,30.2,61,30.07,10.0,NNW,10.4,-,N/A,,Clear,330,2013-05-14 09:55:00
6:15 AM,42.8,30.2,61,30.07,10.0,NNW,12.7,18.4,N/A,,Clear,330,2013-05-14 10:15:00
6:35 AM,44.6,30.2,57,30.07,10.0,NNW,11.5,-,N/A,,Clear,340,2013-05-14 10:35:00
6:55 AM,44.6,30.2,57,30.08,10.0,NNW,12.7,17.3,N/A,,Clear,340,2013-05-14 10:55:00
7:15 AM,46.4,30.2,53,30.07,10.0,North,9.2,-,N/A,,Clear,360,2013-05-14 11:15:00
7:35 AM,46.4,30.2,53,30.07,10.0,North,11.5,16.1,N/A,,Clear,350,2013-05-14 11:35:00
7:55 AM,48.2,30.2,50,30.07,10.0,NNW,10.4,-,N/A,,Clear,340,2013-05-14 11:55:00
8:15 AM,48.2,30.2,50,30.07,10.0,North,9.2,-,N/A,,Clear,10,2013-05-14 12:15:00
8:35 AM,51.8,30.2,44,30.07,10.0,North,8.1,-,N/A,,Clear,360,2013-05-14 12:35:00
8:55 AM,51.8,30.2,44,30.07,10.0,North,4.6,-,N/A,,Clear,10,2013-05-14 12:55:00
9:15 AM,53.6,30.2,41,30.06,10.0,NNE,6.9,-,N/A,,Clear,20,2013-05-14 13:15:00
9:35 AM,51.8,30.2,44,30.06,10.0,NW,6.9,-,N/A,,Clear,320,2013-05-14 13:35:00
9:55 AM,55.4,28.4,36,30.06,9.0,North,11.5,-,N/A,,Clear,10,2013-05-14 13:55:00
10:15 AM,55.4,28.4,36,30.06,10.0,NNE,10.4,-,N/A,,Clear,20,2013-05-14 14:15:00
10:35 AM,53.6,28.4,38,30.06,10.0,NW,5.8,16.1,N/A,,Partly Cloudy,320,2013-05-14 14:35:00
10:55 AM,53.6,26.6,35,30.06,10.0,NW,5.8,-,N/A,,Partly Cloudy,310,2013-05-14 14:55:00
11:15 AM,53.6,26.6,35,30.06,10.0,NW,5.8,-,N/A,,Mostly Cloudy,310,2013-05-14 15:15:00
11:35 AM,55.4,26.6,33,30.06,10.0,NNW,9.2,-,N/A,,Mostly Cloudy,340,2013-05-14 15:35:00
11:55 AM,53.6,26.6,35,30.06,10.0,NW,9.2,-,N/A,,Mostly Cloudy,320,2013-05-14 15:55:00
12:15 PM,53.6,28.4,38,30.06,10.0,NW,4.6,-,N/A,,Mostly Cloudy,310,2013-05-14 16:15:00
12:35 PM,53.6,26.6,35,30.06,10.0,NNW,4.6,-,N/A,,Mostly Cloudy,340,2013-05-14 16:35:00
12:55 PM,55.4,28.4,36,30.06,10.0,NW,6.9,-,N/A,,Mostly Cloudy,320,2013-05-14 16:55:00
1:15 PM,55.4,26.6,33,30.06,10.0,NW,8.1,-,N/A,,Scattered Clouds,310,2013-05-14 17:15:00
1:35 PM,55.4,26.6,33,30.05,10.0,WNW,6.9,-,N/A,,Mostly Cloudy,300,2013-05-14 17:35:00
1:55 PM,55.4,26.6,33,30.05,10.0,NNW,10.4,-,N/A,,Scattered Clouds,330,2013-05-14 17:55:00
2:15 PM,55.4,26.6,33,30.04,10.0,NW,9.2,-,N/A,,Scattered Clouds,320,2013-05-14 18:15:00
2:35 PM,55.4,26.6,33,30.03,10.0,NNW,5.8,-,N/A,,Mostly Cloudy,330,2013-05-14 18:35:00
2:55 PM,57.2,26.6,31,30.03,10.0,West,4.6,-,N/A,,Mostly Cloudy,270,2013-05-14 18:55:00
3:15 PM,55.4,28.4,36,30.03,10.0,WSW,5.8,-,N/A,,Overcast,250,2013-05-14 19:15:00
3:35 PM,55.4,30.2,38,30.03,10.0,West,9.2,-,N/A,,Mostly Cloudy,270,2013-05-14 19:35:00
3:55 PM,55.4,30.2,38,30.02,10.0,WNW,6.9,-,N/A,,Mostly Cloudy,290,2013-05-14 19:55:00
4:15 PM,55.4,30.2,38,30.02,10.0,West,4.6,-,N/A,,Mostly Cloudy,280,2013-05-14 20:15:00
4:35 PM,55.4,30.2,38,30.02,10.0,WSW,3.5,-,N/A,,Scattered Clouds,250,2013-05-14 20:35:00
4:55 PM,57.2,26.6,31,30.02,10.0,NNW,9.2,-,N/A,,Partly Cloudy,330,2013-05-14 20:55:00
5:15 PM,57.2,23.0,27,30.02,10.0,North,6.9,-,N/A,,Mostly Cloudy,360,2013-05-14 21:15:00
5:35 PM,55.4,23.0,29,30.01,10.0,WNW,5.8,-,N/A,,Partly Cloudy,300,2013-05-14 21:35:00
5:55 PM,55.4,23.0,29,30.02,10.0,NNW,5.8,-,N/A,,Clear,340,2013-05-14 21:55:00
6:15 PM,57.2,23.0,27,30.02,10.0,NNW,4.6,-,N/A,,Clear,330,2013-05-14 22:15:00
6:35 PM,55.4,24.8,31,30.02,10.0,Calm,Calm,-,N/A,,Clear,0,2013-05-14 22:35:00
6:55 PM,53.6,26.6,35,30.03,10.0,Calm,Calm,-,N/A,,Clear,0,2013-05-14 22:55:00
7:15 PM,51.8,28.4,41,30.03,10.0,Calm,Calm,-,N/A,,Clear,0,2013-05-14 23:15:00
7:35 PM,50.0,32.0,50,30.03,10.0,SW,3.5,-,N/A,,Clear,230,2013-05-14 23:35:00
7:55 PM,50.0,32.0,50,30.04,10.0,Calm,Calm,-,N/A,,Scattered Clouds,0,2013-05-14 23:55:00
8:15 PM,46.4,33.8,62,30.05,10.0,Calm,Calm,-,N/A,,Partly Cloudy,0,2013-05-15 00:15:00
8:35 PM,44.6,33.8,66,30.05,10.0,Calm,Calm,-,N/A,,Clear,0,2013-05-15 00:35:00
8:55 PM,44.6,33.8,66,30.06,10.0,Calm,Calm,-,N/A,,Clear,0,2013-05-15 00:55:00
9:15 PM,44.6,33.8,66,30.07,10.0,Calm,Calm,-,N/A,,Clear,0,2013-05-15 01:15:00
9:35 PM,44.6,32.0,61,30.07,10.0,SSE,3.5,-,N/A,,Clear,160,2013-05-15 01:35:00
9:55 PM,44.6,35.6,71,30.08,10.0,SW,4.6,-,N/A,,Clear,220,2013-05-15 01:55:00
10:15 PM,46.4,39.2,76,30.07,10.0,WSW,4.6,-,N/A,,Clear,240,2013-05-15 02:15:00
10:35 PM,46.4,37.4,71,30.08,10.0,West,4.6,-,N/A,,Clear,260,2013-05-15 02:35:00
10:55 PM,46.4,39.2,76,30.08,10.0,WSW,4.6,-,N/A,,Clear,250,2013-05-15 02:55:00
11:15 PM,46.4,39.2,76,30.09,10.0,WSW,5.8,-,N/A,,Clear,240,2013-05-15 03:15:00
11:35 PM,46.4,39.2,76,30.09,10.0,WSW,3.5,-,N/A,,Clear,240,2013-05-15 03:35:00
11:55 PM,46.4,39.2,76,30.09,10.0,Calm,Calm,-,N/A,,Clear,0,2013-05-15 03:55:00